createdAt,value
2022-11-03T00:00:33.716Z,1005.94
2022-11-03T00:01:33.773Z,1005.95
2022-11-03T00:02:33.781Z,1005.89
2022-11-03T00:03:33.715Z,1005.96
2022-11-03T00:04:33.699Z,1005.97
2022-11-03T00:05:33.676Z,1005.95
2022-11-03T00:06:33.774Z,1005.96
2022-11-03T00:07:33.846Z,1006.01
2022-11-03T00:08:33.686Z,1005.97
2022-11-03T00:09:33.744Z,1005.94
2022-11-03T00:10:33.924Z,1005.95
2022-11-03T00:11:33.624Z,1005.98
2022-11-03T00:12:33.632Z,1005.96
2022-11-03T00:13:33.765Z,1005.98
2022-11-03T00:14:33.804Z,1005.92
2022-11-03T00:15:33.606Z,1005.93
2022-11-03T00:16:33.652Z,1005.97
2022-11-03T00:17:34.013Z,1005.95
2022-11-03T00:18:34.024Z,1005.97
2022-11-03T00:19:34.041Z,1005.93
2022-11-03T00:20:33.613Z,1005.88
2022-11-03T00:21:33.800Z,1005.91
2022-11-03T00:22:34.078Z,1005.88
2022-11-03T00:23:34.090Z,1005.81
2022-11-03T00:24:33.527Z,1005.76
2022-11-03T00:25:34.070Z,1005.76
2022-11-03T00:26:34.122Z,1005.76
2022-11-03T00:27:33.651Z,1005.74
2022-11-03T00:28:33.998Z,1005.75
2022-11-03T00:29:34.162Z,1005.71
2022-11-03T00:30:33.531Z,1005.61
2022-11-03T00:31:33.499Z,1005.59
2022-11-03T00:32:33.491Z,1005.66
2022-11-03T00:33:33.490Z,1005.60
2022-11-03T00:34:33.495Z,1005.51
2022-11-03T00:35:33.481Z,1005.54
2022-11-03T00:36:33.711Z,1005.49
2022-11-03T00:37:33.559Z,1005.50
2022-11-03T00:38:33.600Z,1005.50
2022-11-03T00:39:33.659Z,1005.49
2022-11-03T00:40:33.659Z,1005.53
2022-11-03T00:41:33.670Z,1005.50
2022-11-03T00:42:33.806Z,1005.48
2022-11-03T00:43:33.807Z,1005.50
2022-11-03T00:44:33.907Z,1005.53
2022-11-03T00:45:33.519Z,1005.48
2022-11-03T00:46:33.990Z,1005.53
2022-11-03T00:47:34.030Z,1005.50
2022-11-03T00:48:33.369Z,1005.43
2022-11-03T00:49:34.055Z,1005.46
2022-11-03T00:50:33.656Z,1005.46
2022-11-03T00:51:33.394Z,1005.47
2022-11-03T00:52:33.406Z,1005.47
2022-11-03T00:53:33.516Z,1005.48
2022-11-03T00:54:33.776Z,1005.43
2022-11-03T00:55:33.937Z,1005.55
2022-11-03T00:56:33.488Z,1005.52
2022-11-03T00:57:33.474Z,1005.47
2022-11-03T00:58:33.458Z,1005.46
2022-11-03T00:59:33.313Z,1005.42
2022-11-03T01:00:33.365Z,1005.38
2022-11-03T01:01:33.532Z,1005.44
2022-11-03T01:02:33.523Z,1005.45
2022-11-03T01:03:33.275Z,1005.47
2022-11-03T01:04:33.537Z,1005.48
2022-11-03T01:05:33.601Z,1005.46
2022-11-03T01:06:33.664Z,1005.51
2022-11-03T01:07:33.392Z,1005.51
2022-11-03T01:08:33.795Z,1005.54
2022-11-03T01:09:33.376Z,1005.48
2022-11-03T01:10:33.698Z,1005.50
2022-11-03T01:11:33.913Z,1005.44
2022-11-03T01:12:33.234Z,1005.48
2022-11-03T01:13:33.263Z,1005.46
2022-11-03T01:14:33.221Z,1005.48
2022-11-03T01:15:33.211Z,1005.40
2022-11-03T01:16:33.263Z,1005.43
2022-11-03T01:17:33.243Z,1005.45
2022-11-03T01:18:33.256Z,1005.44
2022-11-03T01:19:33.262Z,1005.41
2022-11-03T01:20:33.180Z,1005.41
2022-11-03T01:21:33.302Z,1005.43
2022-11-03T01:22:33.311Z,1005.42
2022-11-03T01:23:33.320Z,1005.41
2022-11-03T01:24:33.132Z,1005.35
2022-11-03T01:25:33.350Z,1005.47
2022-11-03T01:26:33.360Z,1005.42
2022-11-03T01:27:33.217Z,1005.44
2022-11-03T01:28:33.372Z,1005.39
2022-11-03T01:29:33.399Z,1005.42
2022-11-03T01:30:33.210Z,1005.39
2022-11-03T01:31:33.418Z,1005.40
2022-11-03T01:32:33.289Z,1005.38
2022-11-03T01:33:33.449Z,1005.35
2022-11-03T01:34:33.457Z,1005.38
2022-11-03T01:35:33.472Z,1005.40
2022-11-03T01:36:33.079Z,1005.42
2022-11-03T01:37:33.208Z,1005.39
2022-11-03T01:38:33.510Z,1005.36
2022-11-03T01:39:33.328Z,1005.40
2022-11-03T01:40:33.517Z,1005.37
2022-11-03T01:41:33.548Z,1005.31
2022-11-03T01:42:33.575Z,1005.26
2022-11-03T01:43:33.010Z,1005.30
2022-11-03T01:44:33.413Z,1005.31
2022-11-03T01:45:33.347Z,1005.26
2022-11-03T01:46:33.625Z,1005.27
2022-11-03T01:47:32.987Z,1005.24
2022-11-03T01:48:33.226Z,1005.30
2022-11-03T01:49:32.968Z,1005.23
2022-11-03T01:50:32.977Z,1005.26
2022-11-03T01:51:33.065Z,1005.25
2022-11-03T01:52:33.106Z,1005.19
2022-11-03T01:53:32.996Z,1005.12
2022-11-03T01:54:33.006Z,1005.14
2022-11-03T01:55:33.009Z,1005.17
2022-11-03T01:56:33.035Z,1005.12
2022-11-03T01:57:32.998Z,1005.11
2022-11-03T01:58:33.034Z,1005.09
2022-11-03T01:59:33.024Z,1005.05
2022-11-03T02:00:33.039Z,1005.08
2022-11-03T02:01:32.995Z,1005.05
2022-11-03T02:02:32.939Z,1005.05
2022-11-03T02:03:32.904Z,1005.07
2022-11-03T02:04:32.885Z,1005.05
2022-11-03T02:05:32.854Z,1005.05
2022-11-03T02:06:32.944Z,1005.11
2022-11-03T02:07:32.872Z,1005.06
2022-11-03T02:08:32.896Z,1005.05
2022-11-03T02:09:32.883Z,1005.01
2022-11-03T02:10:32.825Z,1005.07
2022-11-03T02:11:32.893Z,1005.02
2022-11-03T02:12:32.904Z,1005.04
2022-11-03T02:13:32.810Z,1004.94
2022-11-03T02:14:32.812Z,1004.93
2022-11-03T02:15:32.791Z,1004.92
2022-11-03T02:16:32.805Z,1004.97
2022-11-03T02:17:32.812Z,1004.95
2022-11-03T02:18:32.835Z,1004.93
2022-11-03T02:19:32.851Z,1004.89
2022-11-03T02:20:32.865Z,1004.92
2022-11-03T02:21:32.761Z,1004.91
2022-11-03T02:22:32.890Z,1004.87
2022-11-03T02:23:32.775Z,1004.86
2022-11-03T02:24:32.911Z,1004.85
2022-11-03T02:25:32.733Z,1004.82
2022-11-03T02:26:32.720Z,1004.81
2022-11-03T02:27:32.749Z,1004.80
2022-11-03T02:28:32.812Z,1004.73
2022-11-03T02:29:32.700Z,1004.80
2022-11-03T02:30:32.780Z,1004.73
2022-11-03T02:31:32.982Z,1004.71
2022-11-03T02:32:32.828Z,1004.78
2022-11-03T02:33:32.669Z,1004.68
2022-11-03T02:34:32.669Z,1004.67
2022-11-03T02:35:32.671Z,1004.66
2022-11-03T02:36:33.070Z,1004.60
2022-11-03T02:37:33.078Z,1004.64
2022-11-03T02:38:33.097Z,1004.55
2022-11-03T02:39:32.647Z,1004.51
2022-11-03T02:40:33.118Z,1004.46
2022-11-03T02:41:33.079Z,1004.48
2022-11-03T02:42:33.149Z,1004.49
2022-11-03T02:43:33.157Z,1004.48
2022-11-03T02:44:32.616Z,1004.53
2022-11-03T02:45:32.717Z,1004.47
2022-11-03T02:46:32.900Z,1004.46
2022-11-03T02:47:32.636Z,1004.41
2022-11-03T02:48:33.228Z,1004.44
2022-11-03T02:49:33.148Z,1004.36
2022-11-03T02:50:32.563Z,1004.37
2022-11-03T02:51:32.567Z,1004.35
2022-11-03T02:52:33.278Z,1004.31
2022-11-03T02:53:32.586Z,1004.37
2022-11-03T02:54:32.547Z,1004.35
2022-11-03T02:55:32.607Z,1004.37
2022-11-03T02:56:32.578Z,1004.33
2022-11-03T02:57:32.680Z,1004.33
2022-11-03T02:58:32.716Z,1004.29
2022-11-03T02:59:32.626Z,1004.32
2022-11-03T03:00:32.807Z,1004.30
2022-11-03T03:01:32.976Z,1004.22
2022-11-03T03:02:32.968Z,1004.22
2022-11-03T03:03:32.554Z,1004.21
2022-11-03T03:04:32.545Z,1004.22
2022-11-03T03:05:32.538Z,1004.16
2022-11-03T03:06:32.544Z,1004.13
2022-11-03T03:07:32.626Z,1004.16
2022-11-03T03:08:32.673Z,1004.17
2022-11-03T03:09:32.714Z,1004.15
2022-11-03T03:10:32.485Z,1004.06
2022-11-03T03:12:32.864Z,1004.02
2022-11-03T03:13:32.662Z,1003.99
2022-11-03T03:14:32.695Z,1004.04
2022-11-03T03:15:32.703Z,1004.04
2022-11-03T03:16:32.505Z,1004.01
2022-11-03T03:17:32.549Z,1003.98
2022-11-03T03:18:32.981Z,1004.05
2022-11-03T03:19:32.842Z,1003.95
2022-11-03T03:20:33.046Z,1003.98
2022-11-03T03:21:32.399Z,1003.93
2022-11-03T03:22:32.821Z,1003.93
2022-11-03T03:23:32.552Z,1003.90
2022-11-03T03:24:32.721Z,1003.94
2022-11-03T03:25:32.371Z,1003.87
2022-11-03T03:26:33.331Z,1003.86
2022-11-03T03:27:32.559Z,1003.92
2022-11-03T03:28:32.861Z,1003.85
2022-11-03T03:29:33.122Z,1003.85
2022-11-03T03:30:32.411Z,1003.83
2022-11-03T03:31:32.310Z,1003.81
2022-11-03T03:32:33.119Z,1003.82
2022-11-03T03:33:32.549Z,1003.84
2022-11-03T03:34:35.294Z,1003.80
2022-11-03T03:35:33.020Z,1003.79
2022-11-03T03:36:32.390Z,1003.79
2022-11-03T03:37:32.456Z,1003.76
2022-11-03T03:38:32.749Z,1003.72
2022-11-03T03:39:32.284Z,1003.71
2022-11-03T03:40:32.291Z,1003.76
2022-11-03T03:41:32.279Z,1003.72
2022-11-03T03:42:32.288Z,1003.77
2022-11-03T03:43:32.269Z,1003.70
2022-11-03T03:44:32.298Z,1003.71
2022-11-03T03:45:32.304Z,1003.62
2022-11-03T03:46:32.208Z,1003.61
2022-11-03T03:47:32.219Z,1003.69
2022-11-03T03:48:32.218Z,1003.68
2022-11-03T03:49:32.268Z,1003.67
2022-11-03T03:50:32.297Z,1003.64
2022-11-03T03:51:32.163Z,1003.69
2022-11-03T03:52:32.166Z,1003.61
2022-11-03T03:53:32.186Z,1003.58
2022-11-03T03:54:32.242Z,1003.60
2022-11-03T03:55:32.130Z,1003.58
2022-11-03T03:56:32.166Z,1003.54
2022-11-03T03:57:32.288Z,1003.55
2022-11-03T03:58:32.425Z,1003.55
2022-11-03T03:59:32.490Z,1003.56
2022-11-03T04:00:32.222Z,1003.51
2022-11-03T04:01:32.641Z,1003.61
2022-11-03T04:02:32.675Z,1003.57
2022-11-03T04:03:32.657Z,1003.52
2022-11-03T04:04:32.464Z,1003.47
2022-11-03T04:05:32.154Z,1003.45
2022-11-03T04:06:32.088Z,1003.47
2022-11-03T04:07:32.594Z,1003.45
2022-11-03T04:08:32.864Z,1003.50
2022-11-03T04:09:32.055Z,1003.49
2022-11-03T04:10:32.024Z,1003.49
2022-11-03T04:11:34.461Z,1003.48
2022-11-03T04:12:32.053Z,1003.53
2022-11-03T04:13:32.023Z,1003.52
2022-11-03T04:14:32.004Z,1003.52
2022-11-03T04:15:32.018Z,1003.52
2022-11-03T04:16:32.101Z,1003.47
2022-11-03T04:17:32.134Z,1003.50
2022-11-03T04:18:32.124Z,1003.48
2022-11-03T04:19:31.993Z,1003.45
2022-11-03T04:20:32.113Z,1003.44
2022-11-03T04:21:32.042Z,1003.42
2022-11-03T04:22:32.064Z,1003.46
2022-11-03T04:23:31.952Z,1003.45
2022-11-03T04:24:32.100Z,1003.43
2022-11-03T04:25:32.150Z,1003.44
2022-11-03T04:26:32.020Z,1003.46
2022-11-03T04:27:31.981Z,1003.47
2022-11-03T04:28:32.367Z,1003.42
2022-11-03T04:29:32.271Z,1003.32
2022-11-03T04:30:31.961Z,1003.36
2022-11-03T04:31:32.209Z,1003.36
2022-11-03T04:32:31.922Z,1003.34
2022-11-03T04:33:31.883Z,1003.36
2022-11-03T04:34:32.011Z,1003.35
2022-11-03T04:35:32.279Z,1003.38
2022-11-03T04:36:32.360Z,1003.39
2022-11-03T04:37:32.657Z,1003.36
2022-11-03T04:38:31.989Z,1003.39
2022-11-03T04:39:31.862Z,1003.33
2022-11-03T04:40:32.430Z,1003.31
2022-11-03T04:41:31.852Z,1003.27
2022-11-03T04:42:31.830Z,1003.31
2022-11-03T04:43:32.155Z,1003.28
2022-11-03T04:44:32.003Z,1003.27
2022-11-03T04:45:31.871Z,1003.22
2022-11-03T04:46:31.937Z,1003.29
2022-11-03T04:47:32.319Z,1003.23
2022-11-03T04:48:31.975Z,1003.22
2022-11-03T04:49:31.897Z,1003.26
2022-11-03T04:50:31.896Z,1003.28
2022-11-03T04:51:31.777Z,1003.22
2022-11-03T04:52:31.845Z,1003.21
2022-11-03T04:53:31.866Z,1003.29
2022-11-03T04:54:31.915Z,1003.23
2022-11-03T04:55:31.957Z,1003.23
2022-11-03T04:56:31.882Z,1003.17
2022-11-03T04:57:31.768Z,1003.10
2022-11-03T04:58:31.735Z,1003.14
2022-11-03T04:59:31.787Z,1003.08
2022-11-03T05:00:31.764Z,1003.14
2022-11-03T05:01:31.868Z,1003.11
2022-11-03T05:02:31.857Z,1003.15
2022-11-03T05:03:31.904Z,1003.13
2022-11-03T05:04:31.775Z,1003.16
2022-11-03T05:05:31.950Z,1003.15
2022-11-03T05:06:32.016Z,1003.14
2022-11-03T05:07:31.774Z,1003.09
2022-11-03T05:08:31.678Z,1003.07
2022-11-03T05:09:32.193Z,1003.09
2022-11-03T05:10:32.179Z,1003.08
2022-11-03T05:11:32.063Z,1003.06
2022-11-03T05:12:32.303Z,1002.99
2022-11-03T05:13:32.383Z,1002.99
2022-11-03T05:14:32.427Z,1003.04
2022-11-03T05:15:31.834Z,1003.02
2022-11-03T05:16:32.322Z,1003.00
2022-11-03T05:17:31.713Z,1003.01
2022-11-03T05:18:32.567Z,1002.94
2022-11-03T05:19:31.920Z,1002.96
2022-11-03T05:20:35.782Z,1002.89
2022-11-03T05:21:32.451Z,1002.92
2022-11-03T05:22:31.809Z,1002.93
2022-11-03T05:23:31.621Z,1002.95
2022-11-03T05:24:31.552Z,1002.90
2022-11-03T05:25:31.910Z,1002.86
2022-11-03T05:26:31.640Z,1002.87
2022-11-03T05:27:31.911Z,1002.84
2022-11-03T05:28:32.350Z,1002.86
2022-11-03T05:29:31.969Z,1002.80
2022-11-03T05:30:31.501Z,1002.78
2022-11-03T05:31:31.958Z,1002.73
2022-11-03T05:32:31.539Z,1002.75
2022-11-03T05:33:31.510Z,1002.78
2022-11-03T05:34:31.520Z,1002.74
2022-11-03T05:35:31.531Z,1002.69
2022-11-03T05:36:31.587Z,1002.63
2022-11-03T05:37:31.510Z,1002.65
2022-11-03T05:38:31.499Z,1002.68
2022-11-03T05:39:31.598Z,1002.65
2022-11-03T05:40:31.607Z,1002.63
2022-11-03T05:41:31.608Z,1002.58
2022-11-03T05:42:31.625Z,1002.54
2022-11-03T05:43:31.637Z,1002.53
2022-11-03T05:44:31.418Z,1002.52
2022-11-03T05:45:31.449Z,1002.45
2022-11-03T05:46:31.448Z,1002.53
2022-11-03T05:47:31.447Z,1002.51
2022-11-03T05:48:31.457Z,1002.47
2022-11-03T05:49:31.388Z,1002.51
2022-11-03T05:50:31.416Z,1002.48
2022-11-03T05:51:31.476Z,1002.53
2022-11-03T05:52:31.481Z,1002.48
2022-11-03T05:53:31.574Z,1002.48
2022-11-03T05:54:31.605Z,1002.45
2022-11-03T05:55:31.644Z,1002.46
2022-11-03T05:56:31.375Z,1002.38
2022-11-03T05:57:31.768Z,1002.41
2022-11-03T05:58:31.765Z,1002.40
2022-11-03T05:59:31.414Z,1002.41
2022-11-03T06:00:31.315Z,1002.36
2022-11-03T06:01:31.573Z,1002.31
2022-11-03T06:02:31.936Z,1002.36
2022-11-03T06:03:31.900Z,1002.37
2022-11-03T06:04:31.425Z,1002.37
2022-11-03T06:05:31.927Z,1002.33
2022-11-03T06:06:32.582Z,1002.33
2022-11-03T06:07:31.284Z,1002.31
2022-11-03T06:08:31.596Z,1002.30
2022-11-03T06:09:31.295Z,1002.27
2022-11-03T06:10:31.242Z,1002.27
2022-11-03T06:11:31.275Z,1002.30
2022-11-03T06:12:31.241Z,1002.30
2022-11-03T06:13:31.326Z,1002.29
2022-11-03T06:14:31.517Z,1002.27
2022-11-03T06:15:31.362Z,1002.30
2022-11-03T06:16:31.218Z,1002.25
2022-11-03T06:17:31.193Z,1002.18
2022-11-03T06:18:31.312Z,1002.21
2022-11-03T06:19:31.323Z,1002.22
2022-11-03T06:20:31.232Z,1002.24
2022-11-03T06:21:31.331Z,1002.17
2022-11-03T06:22:31.332Z,1002.16
2022-11-03T06:23:31.221Z,1002.14
2022-11-03T06:24:31.378Z,1002.14
2022-11-03T06:25:31.381Z,1002.10
2022-11-03T06:26:31.373Z,1002.12
2022-11-03T06:27:31.225Z,1002.10
2022-11-03T06:28:31.309Z,1002.13
2022-11-03T06:29:31.110Z,1002.10
2022-11-03T06:30:31.175Z,1002.09
2022-11-03T06:31:31.139Z,1002.01
2022-11-03T06:32:31.149Z,1002.04
2022-11-03T06:33:31.163Z,1002.02
2022-11-03T06:34:31.185Z,1001.98
2022-11-03T06:35:31.190Z,1001.97
2022-11-03T06:36:31.198Z,1001.99
2022-11-03T06:37:31.254Z,1002.01
2022-11-03T06:38:31.068Z,1001.96
2022-11-03T06:39:31.041Z,1001.95
2022-11-03T06:40:31.163Z,1001.95
2022-11-03T06:41:31.270Z,1001.93
2022-11-03T06:42:32.172Z,1001.94
2022-11-03T06:43:31.318Z,1001.95
2022-11-03T06:44:31.309Z,1001.87
2022-11-03T06:45:30.988Z,1001.85
2022-11-03T06:46:31.057Z,1001.87
2022-11-03T06:47:31.126Z,1001.82
2022-11-03T06:48:31.066Z,1001.79
2022-11-03T06:49:31.036Z,1001.79
2022-11-03T06:50:30.965Z,1001.85
2022-11-03T06:51:31.017Z,1001.82
2022-11-03T06:52:31.016Z,1001.78
2022-11-03T06:53:30.957Z,1001.77
2022-11-03T06:54:31.107Z,1001.77
2022-11-03T06:55:31.144Z,1001.72
2022-11-03T06:56:31.997Z,1001.62
2022-11-03T06:57:31.244Z,1001.67
2022-11-03T06:58:31.393Z,1001.67
2022-11-03T06:59:31.114Z,1001.65
2022-11-03T07:00:36.907Z,1001.64
2022-11-03T07:01:31.577Z,1001.63
2022-11-03T07:02:30.999Z,1001.58
2022-11-03T07:03:31.227Z,1001.64
2022-11-03T07:04:30.914Z,1001.60
2022-11-03T07:05:30.923Z,1001.60
2022-11-03T07:06:31.416Z,1001.61
2022-11-03T07:07:31.381Z,1001.58
2022-11-03T07:08:30.873Z,1001.55
2022-11-03T07:09:31.472Z,1001.59
2022-11-03T07:10:31.323Z,1001.64
2022-11-03T07:11:30.896Z,1001.63
2022-11-03T07:12:31.091Z,1001.63
2022-11-03T07:13:31.512Z,1001.63
2022-11-03T07:14:30.982Z,1001.56
2022-11-03T07:15:31.693Z,1001.57
2022-11-03T07:16:31.712Z,1001.58
2022-11-03T07:17:30.872Z,1001.57
2022-11-03T07:18:30.842Z,1001.59
2022-11-03T07:19:30.931Z,1001.49
2022-11-03T07:20:31.381Z,1001.47
2022-11-03T07:21:31.761Z,1001.40
2022-11-03T07:22:31.551Z,1001.41
2022-11-03T07:23:31.054Z,1001.36
2022-11-03T07:24:30.800Z,1001.34
2022-11-03T07:25:31.630Z,1001.31
2022-11-03T07:26:30.862Z,1001.31
2022-11-03T07:27:30.929Z,1001.25
2022-11-03T07:28:30.873Z,1001.30
2022-11-03T07:29:30.770Z,1001.23
2022-11-03T07:30:30.889Z,1001.21
2022-11-03T07:31:30.831Z,1001.25
2022-11-03T07:32:30.898Z,1001.26
2022-11-03T07:33:30.760Z,1001.24
2022-11-03T07:34:30.969Z,1001.34
2022-11-03T07:35:46.930Z,1001.31
2022-11-03T07:36:31.075Z,1001.21
2022-11-03T07:37:30.729Z,1001.18
2022-11-03T07:38:31.140Z,1001.21
2022-11-03T07:39:30.753Z,1001.15
2022-11-03T07:40:30.705Z,1001.16
2022-11-03T07:41:34.066Z,1001.20
2022-11-03T07:42:30.787Z,1001.19
2022-11-03T07:43:30.839Z,1001.19
2022-11-03T07:44:30.669Z,1001.11
2022-11-03T07:45:30.617Z,1001.12
2022-11-03T07:46:30.619Z,1001.08
2022-11-03T07:47:30.628Z,1001.00
2022-11-03T07:48:30.628Z,1001.08
2022-11-03T07:49:30.746Z,1001.01
2022-11-03T07:50:30.756Z,1000.97
2022-11-03T07:51:30.746Z,1001.00
2022-11-03T07:52:30.595Z,1001.00
2022-11-03T07:53:30.746Z,1000.93
2022-11-03T07:54:30.705Z,1000.93
2022-11-03T07:55:30.527Z,1000.86
2022-11-03T07:56:30.851Z,1000.81
2022-11-03T07:57:30.576Z,1000.75
2022-11-03T07:58:31.115Z,1000.79
2022-11-03T07:59:30.665Z,1000.69
2022-11-03T08:00:30.975Z,1000.64
2022-11-03T08:01:30.627Z,1000.56
2022-11-03T08:02:31.245Z,1000.46
2022-11-03T08:03:30.494Z,1000.46
2022-11-03T08:04:31.106Z,1000.44
2022-11-03T08:05:31.326Z,1000.47
2022-11-03T08:06:30.514Z,1000.50
2022-11-03T08:07:30.503Z,1000.46
2022-11-03T08:08:30.522Z,1000.39
2022-11-03T08:09:30.477Z,1000.42
2022-11-03T08:10:30.613Z,1000.32
2022-11-03T08:11:30.636Z,1000.35
2022-11-03T08:12:30.713Z,1000.35
2022-11-03T08:13:30.755Z,1000.38
2022-11-03T08:14:30.423Z,1000.41
2022-11-03T08:15:30.843Z,1000.36
2022-11-03T08:16:30.763Z,1000.31
2022-11-03T08:17:30.402Z,1000.30
2022-11-03T08:18:30.387Z,1000.26
2022-11-03T08:19:30.401Z,1000.28
2022-11-03T08:20:30.392Z,1000.28
2022-11-03T08:21:30.391Z,1000.28
2022-11-03T08:22:30.531Z,1000.27
2022-11-03T08:23:30.544Z,1000.28
2022-11-03T08:24:30.444Z,1000.28
2022-11-03T08:25:30.392Z,1000.25
2022-11-03T08:26:30.412Z,1000.23
2022-11-03T08:27:30.411Z,1000.16
2022-11-03T08:28:30.422Z,1000.21
2022-11-03T08:29:30.439Z,1000.17
2022-11-03T08:30:30.469Z,1000.17
2022-11-03T08:31:30.461Z,1000.17
2022-11-03T08:32:30.311Z,1000.19
2022-11-03T08:33:30.374Z,1000.25
2022-11-03T08:34:30.350Z,1000.26
2022-11-03T08:35:33.157Z,1000.22
2022-11-03T08:36:30.461Z,1000.20
2022-11-03T08:37:30.251Z,1000.19
2022-11-03T08:38:30.542Z,1000.17
2022-11-03T08:39:30.352Z,1000.19
2022-11-03T08:40:30.579Z,1000.12
2022-11-03T08:41:30.590Z,1000.04
2022-11-03T08:42:30.428Z,1000.11
2022-11-03T08:43:30.299Z,1000.07
2022-11-03T08:44:30.387Z,1000.06
2022-11-03T08:45:30.250Z,1000.07
2022-11-03T08:46:30.288Z,1000.04
2022-11-03T08:47:30.268Z,1000.02
2022-11-03T08:48:30.379Z,1000.02
2022-11-03T08:49:30.437Z,1000.01
2022-11-03T08:50:30.486Z,999.98
2022-11-03T08:51:30.338Z,999.97
2022-11-03T08:52:30.589Z,999.93
2022-11-03T08:53:30.297Z,999.89
2022-11-03T08:54:30.789Z,999.85
2022-11-03T08:55:30.718Z,999.86
2022-11-03T08:56:30.585Z,999.87
2022-11-03T08:57:30.147Z,999.85
2022-11-03T08:58:30.830Z,999.85
2022-11-03T08:59:30.149Z,999.83
2022-11-03T09:00:30.577Z,999.78
2022-11-03T09:01:30.975Z,999.75
2022-11-03T09:02:30.195Z,999.80
2022-11-03T09:03:30.236Z,999.78
2022-11-03T09:04:30.905Z,999.79
2022-11-03T09:05:30.087Z,999.77
2022-11-03T09:06:30.087Z,999.75
2022-11-03T09:10:35.369Z,999.74
2022-11-03T09:11:30.114Z,999.73
2022-11-03T09:12:30.833Z,999.70
2022-11-03T09:13:30.167Z,999.75
2022-11-03T09:14:30.575Z,999.75
2022-11-03T09:15:30.325Z,999.72
2022-11-03T09:16:30.135Z,999.65
2022-11-03T09:17:30.244Z,999.67
2022-11-03T09:18:30.724Z,999.70
2022-11-03T09:19:30.136Z,999.61
2022-11-03T09:20:30.364Z,999.63
2022-11-03T09:21:30.001Z,999.67
2022-11-03T09:22:30.014Z,999.68
2022-11-03T09:23:30.092Z,999.75
2022-11-03T09:24:30.016Z,999.69
2022-11-03T09:25:30.114Z,999.67
2022-11-03T09:26:30.035Z,999.66
2022-11-03T09:27:30.104Z,999.68
2022-11-03T09:28:30.163Z,999.61
2022-11-03T09:29:36.405Z,999.61
2022-11-03T09:30:30.183Z,999.54
2022-11-03T09:31:29.932Z,999.56
2022-11-03T09:32:29.912Z,999.57
2022-11-03T09:33:29.905Z,999.48
2022-11-03T09:34:30.383Z,999.43
2022-11-03T09:35:30.214Z,999.44
2022-11-03T09:36:30.000Z,999.37
2022-11-03T09:37:30.633Z,999.41
2022-11-03T09:38:30.277Z,999.38
2022-11-03T09:39:30.283Z,999.24
2022-11-03T09:40:29.892Z,999.24
2022-11-03T09:41:52.323Z,999.25
2022-11-03T09:42:30.774Z,999.26
2022-11-03T09:43:30.253Z,999.27
2022-11-03T09:44:30.759Z,999.25
2022-11-03T09:45:30.129Z,999.25
2022-11-03T09:46:29.827Z,999.27
2022-11-03T09:47:29.801Z,999.25
2022-11-03T09:48:29.827Z,999.32
2022-11-03T09:49:29.801Z,999.23
2022-11-03T09:50:29.811Z,999.21
2022-11-03T09:51:29.761Z,999.24
2022-11-03T09:52:29.845Z,999.26
2022-11-03T09:53:29.751Z,999.24
2022-11-03T09:54:30.459Z,999.26
2022-11-03T09:55:29.809Z,999.21
2022-11-03T09:56:29.792Z,999.20
2022-11-03T09:57:29.784Z,999.26
2022-11-03T09:58:29.799Z,999.21
2022-11-03T09:59:31.210Z,999.22
2022-11-03T10:00:29.907Z,999.18
2022-11-03T10:01:30.050Z,999.21
2022-11-03T10:02:30.030Z,999.18
2022-11-03T10:03:29.939Z,999.21
2022-11-03T10:04:29.708Z,999.09
2022-11-03T10:05:29.672Z,999.16
2022-11-03T10:06:29.662Z,999.08
2022-11-03T10:07:29.641Z,999.10
2022-11-03T10:08:29.942Z,999.14
2022-11-03T10:09:29.708Z,999.14
2022-11-03T10:10:29.731Z,999.09
2022-11-03T10:11:30.088Z,999.11
2022-11-03T10:12:30.004Z,999.05
2022-11-03T10:13:30.107Z,999.06
2022-11-03T10:14:29.697Z,999.01
2022-11-03T10:15:30.139Z,998.97
2022-11-03T10:16:30.147Z,998.91
2022-11-03T10:17:29.617Z,998.90
2022-11-03T10:18:29.647Z,998.86
2022-11-03T10:19:33.861Z,998.84
2022-11-03T10:20:29.748Z,998.83
2022-11-03T10:21:29.550Z,998.79
2022-11-03T10:22:29.866Z,998.75
2022-11-03T10:23:29.565Z,998.73
2022-11-03T10:24:29.565Z,998.72
2022-11-03T10:25:29.566Z,998.69
2022-11-03T10:26:29.537Z,998.70
2022-11-03T10:27:29.506Z,998.69
2022-11-03T10:28:29.597Z,998.65
2022-11-03T10:29:29.574Z,998.64
2022-11-03T10:30:32.479Z,998.58
2022-11-03T10:31:29.558Z,998.65
2022-11-03T10:32:29.565Z,998.58
2022-11-03T10:33:29.545Z,998.65
2022-11-03T10:34:29.588Z,998.53
2022-11-03T10:35:29.656Z,998.54
2022-11-03T10:36:29.445Z,998.51
2022-11-03T10:37:29.652Z,998.53
2022-11-03T10:38:29.656Z,998.50
2022-11-03T10:39:29.664Z,998.39
2022-11-03T10:40:47.354Z,998.44
2022-11-03T10:41:29.484Z,998.42
2022-11-03T10:42:34.970Z,998.42
2022-11-03T10:43:29.484Z,998.37
2022-11-03T10:44:29.486Z,998.38
2022-11-03T10:45:29.385Z,998.37
2022-11-03T10:46:49.519Z,998.27
2022-11-03T10:47:29.423Z,998.29
2022-11-03T10:48:29.433Z,998.24
2022-11-03T10:49:29.432Z,998.19
2022-11-03T10:50:29.443Z,998.21
2022-11-03T10:51:29.461Z,998.25
2022-11-03T10:52:29.396Z,998.27
2022-11-03T10:53:29.368Z,998.25
2022-11-03T10:54:29.493Z,998.15
2022-11-03T10:55:29.396Z,998.18
2022-11-03T10:56:29.382Z,998.09
2022-11-03T10:57:29.533Z,998.09
2022-11-03T10:58:29.311Z,998.10
2022-11-03T10:59:29.314Z,998.08
2022-11-03T11:00:29.381Z,998.03
2022-11-03T11:01:29.752Z,998.05
2022-11-03T11:02:29.454Z,998.03
2022-11-03T11:03:29.562Z,998.05
2022-11-03T11:04:29.659Z,998.00
2022-11-03T11:05:29.643Z,997.95
2022-11-03T11:06:29.339Z,997.97
2022-11-03T11:07:29.301Z,997.93
2022-11-03T11:08:29.365Z,997.85
2022-11-03T11:09:29.291Z,997.77
2022-11-03T11:10:29.368Z,997.71
2022-11-03T11:11:29.260Z,997.67
2022-11-03T11:12:29.433Z,997.52
2022-11-03T11:13:29.273Z,997.45
2022-11-03T11:14:29.258Z,997.49
2022-11-03T11:15:29.575Z,997.46
2022-11-03T11:16:29.632Z,997.41
2022-11-03T11:17:29.470Z,997.43
2022-11-03T11:18:29.848Z,997.37
2022-11-03T11:19:29.540Z,997.30
2022-11-03T11:20:29.802Z,997.25
2022-11-03T11:21:31.981Z,997.14
2022-11-03T11:22:29.698Z,997.15
2022-11-03T11:23:29.818Z,997.11
2022-11-03T11:24:29.221Z,997.22
2022-11-03T11:25:29.899Z,997.20
2022-11-03T11:26:29.160Z,997.20
2022-11-03T11:27:29.164Z,997.20
2022-11-03T11:28:29.440Z,997.14
2022-11-03T11:29:29.850Z,997.14
2022-11-03T11:30:29.971Z,997.15
2022-11-03T11:31:29.998Z,997.20
2022-11-03T11:32:29.421Z,997.16
2022-11-03T11:33:29.799Z,997.17
2022-11-03T11:34:29.105Z,997.16
2022-11-03T11:35:29.168Z,997.11
2022-11-03T11:36:29.389Z,997.09
2022-11-03T11:37:29.369Z,997.05
2022-11-03T11:38:29.868Z,997.04
2022-11-03T11:39:30.036Z,997.08
2022-11-03T11:40:29.906Z,997.10
2022-11-03T11:41:29.179Z,997.06
2022-11-03T11:42:30.515Z,997.11
2022-11-03T11:43:29.907Z,997.10
2022-11-03T11:44:29.057Z,997.14
2022-11-03T11:45:29.068Z,997.11
2022-11-03T11:46:29.041Z,997.19
2022-11-03T11:47:29.018Z,997.08
2022-11-03T11:48:29.108Z,997.05
2022-11-03T11:49:29.167Z,997.04
2022-11-03T11:50:29.219Z,996.94
2022-11-03T11:51:29.248Z,996.98
2022-11-03T11:52:29.305Z,996.77
2022-11-03T11:53:31.988Z,996.71
2022-11-03T11:54:29.388Z,996.69
2022-11-03T11:55:28.985Z,996.64
2022-11-03T11:56:28.966Z,996.70
2022-11-03T11:57:29.518Z,996.64
2022-11-03T11:58:29.567Z,996.61
2022-11-03T11:59:28.917Z,996.53
2022-11-03T12:00:28.969Z,996.52
2022-11-03T12:01:29.044Z,996.49
2022-11-03T12:02:29.090Z,996.54
2022-11-03T12:03:28.933Z,996.52
2022-11-03T12:04:29.015Z,996.51
2022-11-03T12:05:29.052Z,996.57
2022-11-03T12:06:29.145Z,996.52
2022-11-03T12:07:29.136Z,996.49
2022-11-03T12:08:29.246Z,996.52
2022-11-03T12:09:29.126Z,996.54
2022-11-03T12:10:29.234Z,996.48
2022-11-03T12:11:28.896Z,996.50
2022-11-03T12:12:29.544Z,996.49
2022-11-03T12:13:28.885Z,996.42
2022-11-03T12:14:29.624Z,996.41
2022-11-03T12:15:28.933Z,996.41